createdAt,value
2022-11-19T00:02:27.027Z,10.70
2022-11-19T00:05:15.154Z,9.00
2022-11-19T00:08:04.752Z,9.20
2022-11-19T00:10:53.003Z,9.20
2022-11-19T00:13:42.821Z,12.70
2022-11-19T00:16:30.927Z,13.40
2022-11-19T00:19:18.630Z,10.90
2022-11-19T00:22:06.721Z,11.80
2022-11-19T00:24:54.147Z,10.80
2022-11-19T00:27:41.704Z,10.60
2022-11-19T00:33:39.183Z,11.70
2022-11-19T00:36:26.894Z,11.10
2022-11-19T00:39:14.585Z,9.80
2022-11-19T00:42:02.018Z,13.40
2022-11-19T00:44:50.516Z,13.40
2022-11-19T00:47:38.359Z,12.80
2022-11-19T00:50:25.997Z,11.40
2022-11-19T00:53:13.590Z,11.70
2022-11-19T00:56:03.817Z,14.00
2022-11-19T00:58:52.552Z,10.90
2022-11-19T01:01:40.289Z,10.90
2022-11-19T01:04:28.304Z,9.10
2022-11-19T01:07:15.965Z,11.10
2022-11-19T01:10:03.821Z,11.20
2022-11-19T01:13:10.008Z,11.90
2022-11-19T01:15:57.714Z,11.90
2022-11-19T01:18:48.599Z,10.60
2022-11-19T01:21:37.291Z,10.30
2022-11-19T01:24:25.079Z,11.60
2022-11-19T01:27:12.732Z,11.50
2022-11-19T01:30:00.252Z,10.60
2022-11-19T01:32:47.905Z,13.50
2022-11-19T01:35:36.499Z,13.30
2022-11-19T01:38:24.573Z,11.40
2022-11-19T01:41:12.473Z,12.50
2022-11-19T01:44:07.599Z,10.80
2022-11-19T01:46:55.110Z,10.60
2022-11-19T01:49:42.562Z,12.70
2022-11-19T01:52:30.417Z,10.50
2022-11-19T01:55:19.135Z,11.90
2022-11-19T01:58:07.645Z,13.80
2022-11-19T02:00:55.321Z,11.60
2022-11-19T02:03:43.911Z,11.30
2022-11-19T02:06:33.958Z,9.90
2022-11-19T02:09:22.281Z,12.80
2022-11-19T02:12:28.605Z,14.90
2022-11-19T02:15:39.781Z,11.70
2022-11-19T02:18:57.670Z,14.30
2022-11-19T02:22:30.031Z,11.80
2022-11-19T02:25:39.438Z,12.00
2022-11-19T02:28:54.185Z,10.80
2022-11-19T02:32:17.059Z,12.50
2022-11-19T02:35:21.819Z,14.00
2022-11-19T02:38:21.269Z,12.20
2022-11-19T02:41:37.071Z,13.60
2022-11-19T02:44:52.108Z,14.30
2022-11-19T02:47:47.739Z,14.90
2022-11-19T02:50:50.647Z,15.20
2022-11-19T02:53:38.452Z,15.40
2022-11-19T02:56:52.681Z,16.60
2022-11-19T03:00:12.797Z,15.50
2022-11-19T03:03:29.432Z,15.50
2022-11-19T03:06:29.015Z,14.70
2022-11-19T03:09:17.313Z,14.60
2022-11-19T03:12:21.351Z,13.60
2022-11-19T03:16:14.796Z,11.40
2022-11-19T03:19:26.966Z,12.70
2022-11-19T03:22:35.139Z,13.20
2022-11-19T03:25:31.166Z,14.90
2022-11-19T03:28:31.037Z,14.50
2022-11-19T03:31:22.586Z,14.90
2022-11-19T03:34:18.779Z,13.80
2022-11-19T03:37:10.409Z,12.60
2022-11-19T03:40:02.051Z,15.10
2022-11-19T03:42:54.770Z,13.80
2022-11-19T03:45:46.984Z,13.10
2022-11-19T03:48:37.150Z,15.10
2022-11-19T03:51:41.230Z,14.90
2022-11-19T03:54:29.087Z,16.40
2022-11-19T03:57:20.156Z,15.40
2022-11-19T04:00:09.204Z,17.80
2022-11-19T04:03:04.079Z,15.80
2022-11-19T04:05:52.092Z,15.80
2022-11-19T04:08:40.025Z,16.80
2022-11-19T04:14:14.336Z,16.00
2022-11-19T04:17:02.422Z,16.40
2022-11-19T04:19:50.243Z,13.00
2022-11-19T04:22:38.236Z,13.90
2022-11-19T04:25:26.083Z,17.20
2022-11-19T04:28:13.996Z,15.60
2022-11-19T04:31:01.872Z,15.40
2022-11-19T04:33:49.564Z,12.30
2022-11-19T04:36:40.107Z,15.10
2022-11-19T04:39:28.165Z,13.70
2022-11-19T04:42:15.874Z,15.20
2022-11-19T04:45:03.943Z,15.10
2022-11-19T04:47:51.484Z,14.90
2022-11-19T04:50:39.366Z,15.30
2022-11-19T04:53:26.985Z,16.00
2022-11-19T04:56:15.060Z,15.00
2022-11-19T04:59:04.242Z,15.80
2022-11-19T05:01:52.318Z,13.70
2022-11-19T05:04:40.056Z,19.40
2022-11-19T05:07:27.546Z,13.20
2022-11-19T05:10:15.363Z,12.10
2022-11-19T05:13:04.033Z,15.50
2022-11-19T05:15:51.851Z,17.00
2022-11-19T05:18:40.885Z,15.90
2022-11-19T05:21:28.675Z,19.40
2022-11-19T05:24:16.412Z,16.70
2022-11-19T05:27:04.930Z,15.60
2022-11-19T05:29:52.707Z,16.00
2022-11-19T05:32:40.476Z,16.10
2022-11-19T05:35:28.378Z,17.60
2022-11-19T05:38:16.866Z,16.10
2022-11-19T05:41:04.495Z,18.10
2022-11-19T05:43:52.294Z,15.70
2022-11-19T05:46:40.118Z,19.00
2022-11-19T05:49:28.116Z,16.90
2022-11-19T05:52:15.790Z,16.10
2022-11-19T05:55:03.840Z,17.60
2022-11-19T05:57:51.562Z,13.50
2022-11-19T06:00:39.196Z,17.80
2022-11-19T06:03:27.449Z,18.90
2022-11-19T06:06:15.912Z,18.70
2022-11-19T06:09:04.408Z,17.20
2022-11-19T06:11:51.868Z,16.30
2022-11-19T06:14:39.588Z,20.30
2022-11-19T06:17:27.030Z,18.20
2022-11-19T06:20:14.865Z,15.90
2022-11-19T06:23:02.769Z,16.60
2022-11-19T06:25:50.866Z,19.30
2022-11-19T06:28:38.914Z,17.30
2022-11-19T06:31:27.173Z,18.00
2022-11-19T06:34:15.270Z,14.90
2022-11-19T06:37:03.041Z,18.30
2022-11-19T06:39:51.022Z,16.90
2022-11-19T06:42:39.068Z,17.00
2022-11-19T06:45:26.640Z,15.30
2022-11-19T06:48:14.485Z,17.90
2022-11-19T06:51:02.577Z,17.90
2022-11-19T06:53:50.537Z,16.20
2022-11-19T06:56:38.562Z,17.70
2022-11-19T06:59:26.266Z,16.00
2022-11-19T07:02:17.864Z,17.10
2022-11-19T07:05:08.711Z,14.40
2022-11-19T07:08:01.581Z,13.20
2022-11-19T07:10:50.918Z,19.60
2022-11-19T07:13:57.406Z,18.10
2022-11-19T07:16:45.298Z,18.60
2022-11-19T07:19:33.171Z,16.70
2022-11-19T07:22:20.995Z,19.90
2022-11-19T07:25:13.034Z,19.60
2022-11-19T07:28:00.999Z,18.50
2022-11-19T07:30:48.906Z,21.50
2022-11-19T07:33:39.250Z,19.90
2022-11-19T07:36:26.754Z,19.90
2022-11-19T07:39:14.543Z,20.10
2022-11-19T07:42:20.623Z,18.70
2022-11-19T07:45:12.860Z,21.10
2022-11-19T07:48:00.308Z,21.10
2022-11-19T07:50:56.371Z,23.80
2022-11-19T07:53:44.448Z,21.20
2022-11-19T07:56:32.456Z,21.70
2022-11-19T07:59:20.759Z,19.40
2022-11-19T08:02:15.048Z,21.50
2022-11-19T08:05:02.535Z,19.50
2022-11-19T08:07:50.081Z,22.30
2022-11-19T08:10:37.903Z,23.10
2022-11-19T08:13:25.638Z,20.00
2022-11-19T08:16:39.012Z,19.70
2022-11-19T08:19:27.124Z,20.00
2022-11-19T08:22:14.757Z,18.70
2022-11-19T08:25:03.911Z,17.40
2022-11-19T08:27:51.521Z,20.40
2022-11-19T08:30:43.025Z,17.50
2022-11-19T08:33:30.887Z,20.50
2022-11-19T08:36:18.515Z,22.00
2022-11-19T08:39:06.875Z,16.80
2022-11-19T08:42:12.959Z,14.90
2022-11-19T08:45:01.154Z,20.90
2022-11-19T08:47:48.940Z,19.50
2022-11-19T08:50:36.609Z,17.90
2022-11-19T08:53:24.820Z,18.40
2022-11-19T08:56:16.859Z,19.90
2022-11-19T08:59:05.901Z,18.80
2022-11-19T09:01:53.512Z,23.10
2022-11-19T09:04:41.620Z,19.60
2022-11-19T09:07:29.592Z,14.60
2022-11-19T09:10:18.286Z,17.30
2022-11-19T09:13:06.227Z,22.40
2022-11-19T09:15:54.049Z,18.70
2022-11-19T09:18:42.477Z,19.90
2022-11-19T09:21:32.746Z,17.90
2022-11-19T09:24:23.085Z,18.80
2022-11-19T09:27:11.319Z,19.30
2022-11-19T09:29:59.041Z,18.80
2022-11-19T09:32:46.777Z,21.70
2022-11-19T09:35:34.643Z,21.40
2022-11-19T09:38:22.881Z,20.00
2022-11-19T09:41:17.568Z,19.60
2022-11-19T09:44:17.300Z,18.40
2022-11-19T09:47:23.117Z,21.00
2022-11-19T09:50:31.048Z,17.70
2022-11-19T09:53:22.040Z,18.60
2022-11-19T09:56:18.196Z,18.40
2022-11-19T09:59:33.357Z,18.10
2022-11-19T10:02:23.255Z,17.10
2022-11-19T10:05:17.546Z,15.80
2022-11-19T10:08:31.597Z,17.80
2022-11-19T10:11:40.586Z,18.10
2022-11-19T10:15:01.507Z,16.90
2022-11-19T10:17:57.772Z,16.40
2022-11-19T10:21:17.700Z,19.10
2022-11-19T10:24:23.751Z,16.30
2022-11-19T10:27:32.289Z,17.50
2022-11-19T10:30:30.326Z,18.30
2022-11-19T10:33:43.315Z,16.10
2022-11-19T10:37:10.656Z,17.70
2022-11-19T10:40:22.175Z,16.30
2022-11-19T10:43:28.419Z,17.40
2022-11-19T10:46:25.363Z,16.50
2022-11-19T10:49:13.266Z,18.60
2022-11-19T10:52:01.344Z,19.60
2022-11-19T10:54:52.900Z,16.10
2022-11-19T10:57:42.008Z,19.20
2022-11-19T11:00:29.936Z,19.90
2022-11-19T11:03:29.067Z,21.00
2022-11-19T11:06:16.949Z,18.90
2022-11-19T11:09:04.767Z,19.80
2022-11-19T11:12:10.966Z,18.20
2022-11-19T11:15:21.725Z,16.40
2022-11-19T11:18:11.714Z,16.10
2022-11-19T11:21:00.475Z,17.80
2022-11-19T11:23:53.869Z,17.30
2022-11-19T11:26:41.603Z,18.00
2022-11-19T11:29:29.735Z,20.70
2022-11-19T11:32:32.178Z,22.80
2022-11-19T11:35:38.653Z,22.20
2022-11-19T11:38:27.916Z,20.40
2022-11-19T11:42:03.674Z,19.30
2022-11-19T11:44:32.825Z,21.80
2022-11-19T11:47:27.229Z,20.10
2022-11-19T11:50:28.680Z,20.20
2022-11-19T11:53:27.964Z,19.70
2022-11-19T11:56:21.234Z,18.90
2022-11-19T11:59:35.503Z,19.00
2022-11-19T12:02:23.219Z,19.90
2022-11-19T12:05:18.314Z,20.00
2022-11-19T12:08:30.486Z,18.50
2022-11-19T12:11:56.246Z,17.00
2022-11-19T12:15:03.414Z,21.10
2022-11-19T12:18:10.971Z,21.50
2022-11-19T12:21:11.457Z,20.00
2022-11-19T12:24:18.762Z,23.10
2022-11-19T12:27:55.890Z,20.90
2022-11-19T12:30:56.017Z,19.30
2022-11-19T12:34:05.538Z,19.80
2022-11-19T12:37:40.960Z,21.40
2022-11-19T12:40:41.144Z,20.80
2022-11-19T12:43:41.564Z,23.80
2022-11-19T12:47:06.443Z,21.40
2022-11-19T12:50:14.465Z,22.60
2022-11-19T12:53:17.757Z,22.80
2022-11-19T12:56:34.498Z,19.30
2022-11-19T12:59:41.402Z,22.40
2022-11-19T13:02:35.488Z,19.80
2022-11-19T13:05:54.460Z,20.70
2022-11-19T13:08:49.966Z,20.80
2022-11-19T13:11:56.859Z,21.80
2022-11-19T13:14:55.262Z,18.10
2022-11-19T13:18:09.237Z,22.80
2022-11-19T13:21:01.564Z,23.70
2022-11-19T13:23:52.992Z,25.20
2022-11-19T13:26:40.797Z,26.10
2022-11-19T13:29:43.122Z,25.50
2022-11-19T13:32:41.103Z,24.80
2022-11-19T13:36:03.751Z,23.90
2022-11-19T13:39:04.706Z,25.20
2022-11-19T13:42:14.244Z,23.60
2022-11-19T13:45:02.741Z,28.40
2022-11-19T13:48:10.737Z,28.30
2022-11-19T13:51:09.884Z,22.50
2022-11-19T13:54:03.304Z,24.00
2022-11-19T13:56:55.729Z,23.70
2022-11-19T13:59:47.654Z,23.40
2022-11-19T14:02:41.434Z,24.80
2022-11-19T14:05:31.817Z,27.40
2022-11-19T14:08:44.099Z,28.00
2022-11-19T14:12:04.631Z,25.80
2022-11-19T14:15:38.450Z,25.60
2022-11-19T14:19:02.303Z,24.80
2022-11-19T14:22:13.220Z,26.30
2022-11-19T14:25:19.664Z,24.60
2022-11-19T14:28:44.468Z,25.50
2022-11-19T14:31:32.489Z,23.10
2022-11-19T14:35:07.620Z,25.70
2022-11-19T14:38:02.670Z,23.00
2022-11-19T14:41:04.929Z,22.80
2022-11-19T14:44:24.756Z,24.20
2022-11-19T14:47:30.113Z,26.20
2022-11-19T14:50:29.202Z,27.00
2022-11-19T14:53:20.849Z,24.40
2022-11-19T14:56:16.810Z,26.20
2022-11-19T14:59:15.178Z,21.40
2022-11-19T15:02:33.341Z,25.70
2022-11-19T15:05:31.218Z,25.90
2022-11-19T15:08:18.930Z,26.90
2022-11-19T15:11:13.409Z,29.10
2022-11-19T15:14:29.027Z,24.30
2022-11-19T15:17:18.337Z,23.50
2022-11-19T15:20:22.493Z,28.20
2022-11-19T15:23:50.532Z,25.60
2022-11-19T15:27:31.832Z,23.10
2022-11-19T15:30:57.572Z,24.50
2022-11-19T15:35:04.076Z,26.70
2022-11-19T15:38:19.722Z,25.40
2022-11-19T15:41:14.391Z,23.80
2022-11-19T15:44:09.661Z,23.00
2022-11-19T15:47:01.886Z,23.20
2022-11-19T15:49:51.615Z,27.20
2022-11-19T15:52:39.708Z,25.90
2022-11-19T15:55:31.401Z,21.70
2022-11-19T15:58:24.855Z,23.80
2022-11-19T16:01:18.998Z,28.00
2022-11-19T16:04:17.493Z,25.10
2022-11-19T16:07:09.098Z,28.40
2022-11-19T16:09:59.241Z,29.40
2022-11-19T16:13:17.195Z,30.80
2022-11-19T16:16:44.690Z,30.40
2022-11-19T16:19:32.599Z,30.10
2022-11-19T16:22:21.167Z,29.70
2022-11-19T16:25:26.183Z,27.90
2022-11-19T16:28:18.685Z,31.50
2022-11-19T16:31:07.326Z,29.50
2022-11-19T16:33:55.289Z,27.10
2022-11-19T16:36:48.250Z,25.20
2022-11-19T16:39:37.168Z,22.00
2022-11-19T16:42:28.450Z,24.90
2022-11-19T16:45:35.343Z,26.90
2022-11-19T16:48:50.577Z,25.30
2022-11-19T16:51:52.806Z,25.30
2022-11-19T16:54:50.908Z,23.10
2022-11-19T16:57:47.314Z,20.90
2022-11-19T17:00:37.641Z,22.20
2022-11-19T17:03:35.763Z,25.60
2022-11-19T17:06:25.791Z,26.50
2022-11-19T17:09:38.123Z,29.10
2022-11-19T17:12:28.862Z,25.90
2022-11-19T17:15:36.050Z,25.60
2022-11-19T17:18:33.583Z,26.90
2022-11-19T17:21:32.063Z,25.30
2022-11-19T17:24:25.133Z,29.90
2022-11-19T17:27:34.509Z,25.10
2022-11-19T17:30:32.281Z,23.80
2022-11-19T17:33:23.393Z,22.90
2022-11-19T17:36:13.803Z,20.80
2022-11-19T17:39:02.015Z,22.90
2022-11-19T17:42:08.501Z,25.40
2022-11-19T17:44:56.428Z,26.20
2022-11-19T17:47:44.486Z,26.60
2022-11-19T17:50:34.154Z,24.90
2022-11-19T17:53:24.728Z,24.60
2022-11-19T17:56:30.424Z,26.90
2022-11-19T17:59:18.170Z,24.10
2022-11-19T18:02:15.638Z,26.10
2022-11-19T18:05:16.730Z,24.40
2022-11-19T18:08:04.946Z,23.90
2022-11-19T18:10:52.649Z,24.60
2022-11-19T18:13:42.487Z,21.10
2022-11-19T18:16:35.492Z,22.40
2022-11-19T18:19:31.452Z,23.00
2022-11-19T18:22:20.956Z,20.80
2022-11-19T18:25:16.366Z,23.70
2022-11-19T18:28:04.037Z,18.60
2022-11-19T18:30:51.506Z,28.80
2022-11-19T18:33:41.792Z,27.50
2022-11-19T18:36:29.845Z,22.70
2022-11-19T18:39:17.758Z,25.70
2022-11-19T18:42:05.488Z,22.80
2022-11-19T18:44:53.814Z,19.30
2022-11-19T18:47:42.862Z,23.30
2022-11-19T18:50:30.628Z,22.00
2022-11-19T18:53:18.161Z,23.60
2022-11-19T18:56:07.648Z,22.00
2022-11-19T18:58:57.202Z,22.10
2022-11-19T19:01:48.315Z,20.00
2022-11-19T19:04:36.253Z,18.00
2022-11-19T19:07:24.400Z,20.80
2022-11-19T19:10:13.960Z,21.60
2022-11-19T19:13:01.875Z,21.50
2022-11-19T19:15:49.585Z,21.70
2022-11-19T19:18:39.699Z,19.50
2022-11-19T19:21:28.785Z,18.40
2022-11-19T19:24:16.205Z,22.80
2022-11-19T19:27:04.353Z,23.10
2022-11-19T19:29:52.305Z,19.80
2022-11-19T19:32:42.350Z,20.50
2022-11-19T19:35:30.138Z,15.10
2022-11-19T19:38:18.175Z,23.80
2022-11-19T19:41:08.566Z,18.30
2022-11-19T19:43:59.875Z,20.70
2022-11-19T19:46:48.939Z,19.90
2022-11-19T19:49:39.093Z,19.60
2022-11-19T19:52:30.255Z,18.40
2022-11-19T19:55:18.575Z,20.20
2022-11-19T19:58:07.399Z,22.20
2022-11-19T20:01:22.341Z,23.10
2022-11-19T20:04:13.130Z,22.20
2022-11-19T20:07:03.111Z,20.10
2022-11-19T20:09:51.115Z,20.00
2022-11-19T20:12:58.496Z,16.60
2022-11-19T20:15:47.873Z,20.60
2022-11-19T20:18:37.183Z,20.30
2022-11-19T20:21:31.079Z,15.80
2022-11-19T20:24:23.338Z,17.70
2022-11-19T20:27:11.525Z,19.00
2022-11-19T20:30:00.223Z,23.30
2022-11-19T20:32:49.754Z,24.10
2022-11-19T20:35:37.834Z,22.00
2022-11-19T20:38:26.218Z,22.30
2022-11-19T20:41:36.577Z,18.30
2022-11-19T20:44:25.564Z,21.90
2022-11-19T20:47:13.866Z,23.30
2022-11-19T20:50:04.761Z,23.20
2022-11-19T20:52:52.536Z,22.80
2022-11-19T20:55:53.286Z,22.60
2022-11-19T20:58:48.015Z,22.70
2022-11-19T21:01:36.507Z,18.20
2022-11-19T21:04:27.136Z,22.80
2022-11-19T21:07:16.383Z,23.10
2022-11-19T21:10:07.807Z,22.10
2022-11-19T21:13:02.288Z,21.70
2022-11-19T21:15:50.195Z,21.80
2022-11-19T21:18:39.542Z,23.30
2022-11-19T21:21:30.883Z,25.10
2022-11-19T21:24:18.774Z,24.90
2022-11-19T21:27:06.466Z,25.60
2022-11-19T21:29:54.342Z,26.20
2022-11-19T21:32:42.178Z,27.80
2022-11-19T21:35:29.957Z,23.80
2022-11-19T21:38:17.724Z,28.30
2022-11-19T21:41:07.254Z,27.50
2022-11-19T21:43:54.958Z,26.50
2022-11-19T21:46:45.770Z,24.90
2022-11-19T21:49:33.915Z,26.70
2022-11-19T21:52:21.682Z,27.80
2022-11-19T21:55:09.809Z,27.00
2022-11-19T21:57:59.096Z,26.10
2022-11-19T22:00:47.112Z,24.00
2022-11-19T22:03:35.480Z,31.00
2022-11-19T22:06:23.024Z,31.00
2022-11-19T22:09:10.591Z,29.70
2022-11-19T22:11:58.534Z,27.80
2022-11-19T22:14:46.179Z,32.00
2022-11-19T22:17:34.430Z,29.00
2022-11-19T22:20:23.922Z,28.90
2022-11-19T22:23:11.818Z,27.90
2022-11-19T22:26:08.741Z,25.90
2022-11-19T22:28:57.160Z,32.00
2022-11-19T22:31:44.853Z,32.40
2022-11-19T22:34:32.596Z,33.80
2022-11-19T22:37:20.308Z,29.80
2022-11-19T22:40:09.316Z,31.00
2022-11-19T22:42:57.445Z,26.70
2022-11-19T22:45:45.544Z,24.30
2022-11-19T22:48:34.495Z,26.10
2022-11-19T22:51:25.648Z,26.30
2022-11-19T22:54:15.514Z,33.10
2022-11-19T22:57:03.247Z,30.10
2022-11-19T22:59:50.779Z,33.30
2022-11-19T23:02:39.440Z,30.10
2022-11-19T23:05:27.040Z,29.50
2022-11-19T23:08:15.011Z,32.80
2022-11-19T23:11:06.033Z,28.00
2022-11-19T23:13:54.039Z,29.60
2022-11-19T23:16:43.294Z,31.70
2022-11-19T23:19:30.970Z,33.50
2022-11-19T23:22:18.927Z,33.00
2022-11-19T23:25:07.049Z,34.40
2022-11-19T23:27:54.685Z,30.00
2022-11-19T23:30:42.202Z,31.90
2022-11-19T23:33:31.533Z,29.90
2022-11-19T23:36:23.816Z,31.30
2022-11-19T23:39:16.634Z,31.60
2022-11-19T23:42:04.520Z,33.70
2022-11-19T23:44:53.376Z,33.30
2022-11-19T23:47:41.106Z,31.50
2022-11-19T23:50:28.938Z,30.80
2022-11-19T23:53:17.047Z,30.80
2022-11-19T23:56:05.868Z,33.10
2022-11-19T23:58:54.068Z,32.70
